Time;durP1;ratioP1;P1;durP2;ratioP2;P2;SDS_P1;SDS_P2;PMS_P1;PMS_P2;Temp;Humidity;BMP_temperature;BMP_pressure;BME280_temperature;BME280_humidity;BME280_pressure;Samples;Min_cycle;Max_cycle;Signal;HPM_P1;HPM_P2
2022/12/05 00:01:20;;;;;;;12.23;8.40;;;5.20;1.00;;;;;;5093204;28;20388;-72
2022/12/05 00:03:47;;;;;;;9.27;7.27;;;5.20;1.00;;;;;;5082304;28;20422;-70
2022/12/05 00:06:13;;;;;;;12.57;7.90;;;5.10;1.00;;;;;;5073012;28;20423;-72
2022/12/05 00:08:39;;;;;;;8.57;7.50;;;5.10;1.00;;;;;;5080821;28;20764;-72
2022/12/05 00:11:20;;;;;;;9.40;7.30;;;5.20;1.00;;;;;;5092615;28;20413;-69
2022/12/05 00:13:47;;;;;;;7.93;7.13;;;5.10;1.00;;;;;;5082076;28;20427;-71
2022/12/05 00:16:15;;;;;;;9.07;7.40;;;5.20;1.00;;;;;;5072477;28;20463;-69
2022/12/05 00:18:41;;;;;;;10.53;6.83;;;5.10;1.00;;;;;;5079870;28;20416;-69
2022/12/05 00:21:19;;;;;;;9.23;6.43;;;5.10;1.00;;;;;;5092949;28;20404;-72
2022/12/05 00:23:45;;;;;;;8.77;5.77;;;5.10;1.00;;;;;;5084569;28;20412;-71
2022/12/05 00:26:11;;;;;;;9.37;7.07;;;5.10;1.00;;;;;;5073836;28;20432;-69
2022/12/05 00:28:38;;;;;;;10.80;7.03;;;5.10;1.00;;;;;;5072753;28;20436;-69
2022/12/05 00:31:12;;;;;;;9.60;5.60;;;5.10;1.00;;;;;;5073661;28;20401;-72
2022/12/05 00:33:39;;;;;;;12.03;6.50;;;5.10;1.00;;;;;;5091854;28;20404;-74
2022/12/05 00:36:08;;;;;;;8.60;6.07;;;5.10;1.00;;;;;;5091275;28;21232;-73
2022/12/05 00:38:34;;;;;;;12.63;5.40;;;5.10;1.00;;;;;;5092938;28;20407;-69
2022/12/05 00:41:07;;;;;;;9.07;6.13;;;5.10;1.00;;;;;;5077629;28;20413;-72
2022/12/05 00:43:33;;;;;;;8.27;5.53;;;5.10;1.00;;;;;;5072370;28;20766;-74
2022/12/05 00:46:04;;;;;;;6.50;5.10;;;5.10;1.00;;;;;;5085922;28;20449;-69
2022/12/05 00:48:30;;;;;;;8.93;5.10;;;5.10;1.00;;;;;;5091347;28;20175;-72
2022/12/05 00:51:04;;;;;;;5.67;5.10;;;5.10;1.00;;;;;;5079206;28;20422;-69
2022/12/05 00:53:31;;;;;;;7.40;5.63;;;5.10;1.00;;;;;;5071928;28;20396;-69
2022/12/05 00:56:09;;;;;;;6.70;5.80;;;5.10;1.00;;;;;;5084418;28;20463;-69
2022/12/05 00:58:35;;;;;;;5.53;4.90;;;5.10;1.00;;;;;;5092738;28;20861;-69
2022/12/05 01:01:06;;;;;;;6.33;5.80;;;5.10;1.00;;;;;;5074609;28;20423;-71
2022/12/05 01:03:32;;;;;;;8.03;5.33;;;5.00;1.00;;;;;;5072154;28;20428;-72
2022/12/05 01:06:01;;;;;;;7.57;4.90;;;5.10;1.00;;;;;;5087186;28;20471;-72
2022/12/05 01:08:27;;;;;;;5.43;4.93;;;5.10;1.00;;;;;;5092541;28;20257;-70
2022/12/05 01:10:55;;;;;;;6.73;4.60;;;5.10;1.00;;;;;;5077405;28;20429;-72
2022/12/05 01:13:21;;;;;;;5.50;5.10;;;5.10;1.00;;;;;;5072092;28;20397;-73
2022/12/05 01:15:47;;;;;;;7.50;5.60;;;5.10;1.00;;;;;;5074362;28;20456;-70
2022/12/05 01:18:13;;;;;;;7.47;4.93;;;5.10;1.00;;;;;;5072376;28;20409;-69
2022/12/05 01:20:40;;;;;;;6.80;5.40;;;5.10;1.00;;;;;;5071439;28;20182;-71
2022/12/05 01:23:05;;;;;;;7.93;5.50;;;5.10;1.00;;;;;;5075234;28;20226;-71
2022/12/05 01:25:31;;;;;;;7.60;6.07;;;5.10;1.00;;;;;;5077293;28;20820;-72
2022/12/05 01:27:57;;;;;;;7.43;5.27;;;5.10;1.00;;;;;;5075560;28;20186;-69
2022/12/05 01:30:23;;;;;;;6.40;5.53;;;5.10;1.00;;;;;;5075534;28;20272;-70
2022/12/05 01:32:48;;;;;;;6.43;5.73;;;5.10;1.00;;;;;;5075727;28;20682;-71
2022/12/05 01:35:17;;;;;;;8.37;5.80;;;5.10;1.00;;;;;;5084692;28;20635;-72
2022/12/05 01:37:43;;;;;;;8.47;6.90;;;5.10;1.00;;;;;;5095727;28;20185;-70
2022/12/05 01:40:09;;;;;;;7.30;5.57;;;5.10;1.00;;;;;;5086576;28;20812;-72
2022/12/05 01:42:34;;;;;;;9.03;5.27;;;5.00;1.00;;;;;;5075459;28;20573;-70
2022/12/05 01:45:13;;;;;;;8.63;5.10;;;5.10;1.00;;;;;;5081636;28;20411;-72
2022/12/05 01:47:39;;;;;;;7.07;5.40;;;5.10;1.00;;;;;;5095200;28;20262;-69
2022/12/05 01:50:06;;;;;;;5.87;4.97;;;5.00;1.00;;;;;;5087924;28;20426;-73
2022/12/05 01:52:32;;;;;;;5.93;4.70;;;5.10;1.00;;;;;;5075331;28;20460;-72
2022/12/05 01:55:07;;;;;;;11.07;5.57;;;5.10;1.00;;;;;;5078514;28;20404;-71
2022/12/05 01:57:33;;;;;;;8.47;6.60;;;5.10;1.00;;;;;;5095360;28;20450;-72
2022/12/05 02:00:08;;;;;;;7.40;5.00;;;5.10;1.00;;;;;;5089715;28;20431;-72
2022/12/05 02:02:34;;;;;;;7.67;5.17;;;5.00;1.00;;;;;;5075121;28;20441;-72
2022/12/05 02:05:02;;;;;;;7.37;5.37;;;5.00;1.00;;;;;;5078883;28;20498;-71
2022/12/05 02:07:29;;;;;;;13.30;6.47;;;5.10;1.00;;;;;;5094714;28;20502;-71
2022/12/05 02:09:55;;;;;;;9.60;5.37;;;5.10;1.00;;;;;;5087447;28;20422;-72
2022/12/05 02:12:22;;;;;;;7.30;5.13;;;5.10;1.00;;;;;;5074898;28;20405;-70
2022/12/05 02:15:12;;;;;;;6.83;5.50;;;5.10;1.00;;;;;;5075607;28;20178;-72
2022/12/05 02:17:59;;;;;;;5.87;5.37;;;5.10;1.00;;;;;;5081848;28;20458;-72
2022/12/05 02:21:08;;;;;;;9.87;5.87;;;5.00;1.00;;;;;;5074671;28;20401;-70
2022/12/05 02:24:01;;;;;;;9.90;6.43;;;5.00;1.00;;;;;;5050163;28;20781;-72
2022/12/05 02:26:48;;;;;;;8.10;5.30;;;5.00;1.00;;;;;;5074406;28;20918;-72
2022/12/05 02:29:29;;;;;;;8.50;5.83;;;5.00;1.00;;;;;;5094572;28;20420;-73
2022/12/05 02:31:54;;;;;;;7.00;6.17;;;5.00;1.00;;;;;;5093931;28;20422;-69
2022/12/05 02:34:29;;;;;;;12.10;7.17;;;5.10;1.00;;;;;;5073444;28;20766;-70
2022/12/05 02:37:07;;;;;;;9.40;6.30;;;5.00;1.00;;;;;;5074335;28;20284;-73
2022/12/05 02:39:36;;;;;;;9.10;6.10;;;5.10;1.00;;;;;;5075054;28;20418;-72
2022/12/05 02:42:20;;;;;;;16.50;6.30;;;5.10;1.00;;;;;;5074253;28;20400;-71
2022/12/05 02:45:16;;;;;;;6.80;5.50;;;5.10;1.00;;;;;;5073358;28;20458;-70
2022/12/05 02:47:49;;;;;;;8.20;7.40;;;5.10;1.00;;;;;;5062631;28;20452;-70
2022/12/05 02:50:20;;;;;;;8.40;5.97;;;5.00;1.00;;;;;;5094424;28;20429;-70
2022/12/05 02:52:49;;;;;;;12.87;6.23;;;5.10;1.00;;;;;;5088833;28;20508;-72
2022/12/05 02:55:17;;;;;;;11.47;5.70;;;5.10;1.00;;;;;;5073181;28;20446;-72
2022/12/05 02:57:49;;;;;;;9.93;6.60;;;5.10;1.00;;;;;;5077788;28;20456;-73
2022/12/05 03:00:15;;;;;;;7.00;5.30;;;5.00;1.00;;;;;;5094112;28;20397;-72
2022/12/05 03:02:41;;;;;;;11.13;6.57;;;5.00;1.00;;;;;;5090415;28;20503;-73
2022/12/05 03:05:10;;;;;;;12.03;8.83;;;5.00;1.00;;;;;;5072909;28;20425;-71
2022/12/05 03:07:37;;;;;;;10.40;6.33;;;5.00;1.00;;;;;;5074456;28;20441;-70
2022/12/05 03:10:06;;;;;;;7.57;5.90;;;5.00;1.00;;;;;;5093962;28;20765;-71
2022/12/05 03:12:43;;;;;;;10.40;7.00;;;5.00;1.00;;;;;;5092524;28;20422;-73
2022/12/05 03:15:15;;;;;;;7.93;6.60;;;5.00;1.00;;;;;;5072706;28;20408;-72
2022/12/05 03:17:59;;;;;;;10.03;7.73;;;5.00;1.00;;;;;;5073125;28;20456;-71
2022/12/05 03:20:33;;;;;;;11.33;6.53;;;4.90;1.00;;;;;;5073329;28;20488;-72
2022/12/05 03:23:06;;;;;;;11.30;6.73;;;4.90;1.00;;;;;;5080918;28;20756;-70
2022/12/05 03:26:00;;;;;;;9.93;6.43;;;4.90;1.00;;;;;;5092938;28;20760;-72
2022/12/05 03:28:36;;;;;;;11.40;8.20;;;5.00;1.00;;;;;;5082108;28;20590;-73
2022/12/05 03:31:08;;;;;;;9.97;6.70;;;5.00;1.00;;;;;;5073403;28;20892;-71
2022/12/05 03:33:40;;;;;;;9.30;6.60;;;5.00;1.00;;;;;;5076380;28;20442;-70
2022/12/05 03:36:14;;;;;;;16.40;7.53;;;5.00;1.00;;;;;;5071932;28;20457;-72
2022/12/05 03:38:55;;;;;;;11.13;7.93;;;5.00;1.00;;;;;;5073389;28;20973;-71
2022/12/05 03:41:40;;;;;;;10.87;8.17;;;4.90;1.00;;;;;;5073286;28;20396;-72
2022/12/05 03:44:06;;;;;;;10.53;8.30;;;4.90;1.00;;;;;;5089780;28;20927;-70
2022/12/05 03:46:39;;;;;;;7.67;6.30;;;4.90;1.00;;;;;;5093338;28;20423;-70
2022/12/05 03:49:36;;;;;;;12.10;9.27;;;5.00;1.00;;;;;;5075255;28;20195;-73
2022/12/05 03:52:17;;;;;;;12.80;8.87;;;4.90;1.00;;;;;;5073028;28;21082;-71
2022/12/05 03:54:48;;;;;;;11.70;6.80;;;4.90;1.00;;;;;;5072145;28;20403;-70
2022/12/05 03:57:20;;;;;;;15.13;8.00;;;4.90;1.00;;;;;;5073586;28;20531;-72
2022/12/05 03:59:53;;;;;;;15.87;9.50;;;4.90;1.00;;;;;;5093336;28;20392;-72
2022/12/05 04:02:31;;;;;;;12.70;8.63;;;4.90;1.00;;;;;;5091690;28;20403;-72
2022/12/05 04:05:09;;;;;;;12.50;8.63;;;4.90;1.00;;;;;;5072149;28;20397;-73
2022/12/05 04:07:38;;;;;;;10.93;8.50;;;4.90;1.00;;;;;;5075674;28;21323;-70
2022/12/05 04:10:11;;;;;;;16.00;8.27;;;4.90;1.00;;;;;;5093502;28;20396;-72
2022/12/05 04:12:42;;;;;;;8.57;7.20;;;4.90;1.00;;;;;;5089874;28;20457;-72
2022/12/05 04:15:15;;;;;;;11.17;7.13;;;4.90;1.00;;;;;;5071880;28;20401;-72
2022/12/05 04:17:57;;;;;;;10.07;8.30;;;4.90;1.00;;;;;;5075268;28;20552;-72
2022/12/05 04:23:20;;;;;;;10.40;8.00;;;4.90;1.00;;;;;;5085040;28;20472;-71
2022/12/05 04:26:18;;;;;;;13.47;6.83;;;4.90;1.00;;;;;;5070726;28;20424;-71
2022/12/05 04:29:10;;;;;;;8.43;6.90;;;4.90;1.00;;;;;;5064967;28;20436;-72
2022/12/05 04:31:42;;;;;;;13.07;7.97;;;4.90;1.00;;;;;;5072709;28;20421;-70
2022/12/05 04:34:13;;;;;;;16.93;7.67;;;4.90;1.00;;;;;;5071889;28;20405;-70
2022/12/05 04:36:49;;;;;;;10.63;6.60;;;4.80;1.00;;;;;;5076041;28;20451;-72
2022/12/05 04:39:52;;;;;;;10.93;7.40;;;4.90;1.00;;;;;;5092846;28;20414;-73
2022/12/05 04:42:22;;;;;;;12.53;6.60;;;4.90;1.00;;;;;;5084030;28;20922;-70
2022/12/05 04:45:03;;;;;;;9.87;6.90;;;4.90;1.00;;;;;;5071779;28;20404;-70
2022/12/05 04:47:36;;;;;;;11.23;6.80;;;4.90;1.00;;;;;;5087366;28;20449;-72
2022/12/05 04:50:03;;;;;;;8.03;7.27;;;4.90;1.00;;;;;;5092587;28;20488;-71
2022/12/05 04:52:31;;;;;;;8.17;6.77;;;4.90;1.00;;;;;;5076661;28;20425;-72
2022/12/05 04:55:04;;;;;;;8.03;5.43;;;4.90;1.00;;;;;;5071703;28;20761;-69
2022/12/05 04:57:35;;;;;;;7.63;6.67;;;4.90;1.00;;;;;;5088706;28;20840;-70
2022/12/05 05:00:01;;;;;;;17.17;6.80;;;4.80;1.00;;;;;;5096560;28;20496;-72
2022/12/05 05:02:43;;;;;;;9.47;6.67;;;4.90;1.00;;;;;;5083071;28;20934;-72
2022/12/05 05:05:12;;;;;;;6.27;5.37;;;4.90;1.00;;;;;;5075350;28;20496;-70
2022/12/05 05:07:49;;;;;;;9.37;7.13;;;4.80;1.00;;;;;;5089837;28;20451;-73
2022/12/05 05:10:38;;;;;;;11.87;6.80;;;4.90;1.00;;;;;;5096325;28;20395;-72
2022/12/05 05:13:04;;;;;;;8.40;7.37;;;4.90;1.00;;;;;;5078669;28;20429;-72
2022/12/05 05:15:30;;;;;;;10.07;6.93;;;4.80;1.00;;;;;;5073602;28;20496;-73
2022/12/05 05:17:55;;;;;;;10.03;6.67;;;4.80;1.00;;;;;;5089797;28;20228;-70
2022/12/05 05:20:24;;;;;;;9.60;7.00;;;4.80;1.00;;;;;;5096273;28;20264;-70
2022/12/05 05:22:57;;;;;;;13.33;6.63;;;4.80;1.00;;;;;;5081644;28;20178;-70
2022/12/05 05:25:24;;;;;;;11.63;7.17;;;4.80;1.00;;;;;;5074496;28;20397;-70
2022/12/05 05:27:55;;;;;;;11.67;5.50;;;4.90;1.00;;;;;;5088773;28;20486;-70
2022/12/05 05:30:23;;;;;;;9.73;6.60;;;4.80;1.00;;;;;;5096112;28;20438;-70
2022/12/05 05:32:48;;;;;;;7.87;6.17;;;4.90;1.00;;;;;;5082648;28;20921;-71
2022/12/05 05:35:14;;;;;;;6.10;5.50;;;4.90;1.00;;;;;;5074822;28;20405;-70
2022/12/05 05:37:41;;;;;;;9.83;7.67;;;4.90;1.00;;;;;;5078517;28;20202;-71
2022/12/05 05:40:08;;;;;;;7.77;7.07;;;4.80;1.00;;;;;;5075558;28;20489;-73
2022/12/05 05:42:35;;;;;;;15.00;6.30;;;4.90;1.00;;;;;;5075666;28;20421;-70
2022/12/05 05:45:00;;;;;;;13.20;7.80;;;4.90;1.00;;;;;;5082122;28;20810;-73
2022/12/05 05:47:26;;;;;;;14.60;7.73;;;4.90;1.00;;;;;;5095575;28;20420;-70
2022/12/05 05:49:52;;;;;;;11.40;6.77;;;4.90;1.00;;;;;;5087589;28;20668;-70
2022/12/05 05:52:18;;;;;;;14.73;7.17;;;4.90;1.00;;;;;;5075433;28;20185;-73
2022/12/05 05:54:43;;;;;;;13.83;7.00;;;4.90;1.00;;;;;;5080037;28;20185;-70
2022/12/05 05:57:09;;;;;;;12.07;6.87;;;4.90;1.00;;;;;;5095413;28;20231;-71
2022/12/05 05:59:35;;;;;;;8.73;7.30;;;5.00;1.00;;;;;;5091284;28;20173;-70
2022/12/05 06:02:00;;;;;;;15.97;7.77;;;5.00;1.00;;;;;;5074915;28;20250;-70
2022/12/05 06:04:26;;;;;;;12.07;8.43;;;4.90;1.00;;;;;;5076204;28;20653;-71
2022/12/05 06:06:52;;;;;;;14.17;8.43;;;5.00;1.00;;;;;;5077554;28;20204;-70
2022/12/05 06:09:17;;;;;;;16.40;7.37;;;5.00;1.00;;;;;;5074874;28;20175;-73
2022/12/05 06:11:43;;;;;;;11.80;8.20;;;5.00;1.00;;;;;;5075054;28;20228;-70
2022/12/05 06:14:09;;;;;;;13.90;7.50;;;5.00;1.00;;;;;;5073969;28;20227;-73
2022/12/05 06:16:34;;;;;;;13.70;8.43;;;5.00;1.00;;;;;;5086987;28;20213;-74
2022/12/05 06:19:00;;;;;;;9.90;7.47;;;5.00;1.00;;;;;;5073578;28;20174;-70
2022/12/05 06:21:26;;;;;;;8.27;7.40;;;5.00;1.00;;;;;;5074326;28;20169;-73
2022/12/05 06:23:53;;;;;;;22.57;9.10;;;5.00;1.00;;;;;;5072432;28;20170;-74
2022/12/05 06:26:20;;;;;;;15.83;9.07;;;5.00;1.00;;;;;;5073163;28;20441;-70
2022/12/05 06:28:46;;;;;;;13.77;8.00;;;5.00;1.00;;;;;;5074645;28;20432;-73
2022/12/05 06:31:25;;;;;;;13.77;8.40;;;5.10;1.00;;;;;;5074548;28;20897;-70
2022/12/05 06:33:51;;;;;;;15.20;8.63;;;5.10;1.00;;;;;;5073844;28;20413;-74
2022/12/05 06:36:20;;;;;;;13.77;7.60;;;5.10;1.00;;;;;;5072739;28;20468;-73
2022/12/05 06:38:46;;;;;;;16.90;9.47;;;5.10;1.00;;;;;;5074197;28;20249;-70
2022/12/05 06:41:16;;;;;;;13.13;7.50;;;5.10;1.00;;;;;;5074331;28;20820;-74
2022/12/05 06:43:42;;;;;;;16.83;8.07;;;5.10;1.00;;;;;;5073820;28;20492;-74
2022/12/05 06:46:10;;;;;;;15.43;9.57;;;5.10;1.00;;;;;;5074194;28;20508;-71
2022/12/05 06:48:36;;;;;;;13.83;8.97;;;5.10;1.00;;;;;;5074101;28;20985;-71
2022/12/05 06:51:03;;;;;;;15.23;8.93;;;5.10;1.00;;;;;;5073190;28;20429;-72
2022/12/05 06:53:29;;;;;;;10.27;7.77;;;5.10;1.00;;;;;;5073707;28;20412;-71
2022/12/05 06:55:56;;;;;;;13.70;8.47;;;5.10;1.00;;;;;;5072144;28;20875;-71
2022/12/05 06:58:22;;;;;;;7.23;6.50;;;5.10;1.00;;;;;;5072733;28;20440;-71
2022/12/05 07:03:32;;;;;;;14.77;8.30;;;5.20;1.00;;;;;;5073794;28;20201;-76
2022/12/05 07:06:03;;;;;;;9.63;7.40;;;5.20;1.00;;;;;;5072273;28;20930;-74
2022/12/05 07:08:29;;;;;;;16.50;8.33;;;5.20;1.00;;;;;;5073643;28;20242;-74
2022/12/05 07:10:54;;;;;;;11.20;8.20;;;5.20;1.00;;;;;;5073572;28;20489;-71
2022/12/05 07:13:21;;;;;;;8.70;7.30;;;5.10;1.00;;;;;;5073574;28;20400;-71
2022/12/05 07:15:47;;;;;;;15.63;7.90;;;5.10;1.00;;;;;;5072970;28;20164;-71
2022/12/05 07:18:14;;;;;;;10.70;7.50;;;5.10;1.00;;;;;;5072345;28;20422;-71
2022/12/05 07:20:43;;;;;;;12.40;8.03;;;5.10;1.00;;;;;;5072740;28;20402;-71
2022/12/05 07:23:09;;;;;;;10.87;7.20;;;5.10;1.00;;;;;;5072524;28;20409;-74
2022/12/05 07:25:40;;;;;;;15.40;9.03;;;5.10;1.00;;;;;;5072889;28;20495;-74
2022/12/05 07:28:06;;;;;;;15.63;7.53;;;5.10;1.00;;;;;;5073231;28;20503;-74
2022/12/05 07:30:33;;;;;;;13.33;8.00;;;5.20;1.00;;;;;;5072082;28;20415;-72
2022/12/05 07:32:58;;;;;;;15.40;7.90;;;5.10;1.00;;;;;;5073470;28;20417;-74
2022/12/05 07:35:24;;;;;;;9.87;7.23;;;5.10;1.00;;;;;;5072700;28;20409;-74
2022/12/05 07:37:53;;;;;;;16.70;7.10;;;5.20;1.00;;;;;;5071983;28;20539;-72
2022/12/05 07:40:19;;;;;;;16.53;6.40;;;5.20;1.00;;;;;;5072157;28;20176;-71
2022/12/05 07:42:47;;;;;;;9.77;6.63;;;5.20;1.00;;;;;;5071892;28;20413;-74
2022/12/05 07:45:13;;;;;;;13.37;7.67;;;5.20;1.00;;;;;;5072593;28;20190;-71
2022/12/05 07:47:39;;;;;;;16.10;6.77;;;5.20;1.00;;;;;;5072957;28;20935;-74
2022/12/05 07:50:05;;;;;;;10.20;6.30;;;5.20;1.00;;;;;;5073155;28;20238;-71
2022/12/05 07:52:31;;;;;;;7.03;6.23;;;5.20;1.00;;;;;;5071827;28;20178;-72
2022/12/05 07:54:59;;;;;;;9.77;6.50;;;5.20;1.00;;;;;;5072451;28;20495;-74
2022/12/05 07:57:25;;;;;;;12.23;6.80;;;5.20;1.00;;;;;;5073902;28;20238;-72
2022/12/05 07:59:50;;;;;;;12.83;6.47;;;5.20;1.00;;;;;;5073062;28;20438;-73
2022/12/05 08:02:16;;;;;;;9.10;6.77;;;5.20;1.00;;;;;;5089248;28;20170;-74
2022/12/05 08:04:42;;;;;;;8.97;6.30;;;5.20;1.00;;;;;;5091364;28;20219;-74
2022/12/05 08:07:10;;;;;;;12.13;6.90;;;5.20;1.00;;;;;;5078371;28;20202;-72
2022/12/05 08:09:35;;;;;;;11.47;7.20;;;5.20;1.00;;;;;;5077979;28;20200;-74
2022/12/05 08:12:01;;;;;;;19.07;7.20;;;5.30;1.00;;;;;;5091835;28;20947;-72
2022/12/05 08:14:27;;;;;;;12.00;6.93;;;5.20;1.00;;;;;;5088674;28;20228;-71
2022/12/05 08:16:53;;;;;;;8.87;5.97;;;5.30;1.00;;;;;;5072805;28;20563;-74
2022/12/05 08:19:18;;;;;;;9.27;6.77;;;5.30;1.00;;;;;;5074011;28;20173;-72
2022/12/05 08:21:44;;;;;;;10.27;6.60;;;5.30;1.00;;;;;;5092028;28;20216;-74
2022/12/05 08:24:11;;;;;;;10.03;6.40;;;5.30;1.00;;;;;;5080404;28;20180;-71
2022/12/05 08:26:38;;;;;;;10.30;7.60;;;5.30;1.00;;;;;;5072493;28;20201;-73
2022/12/05 08:29:06;;;;;;;16.03;6.50;;;5.30;1.00;;;;;;5072692;28;20426;-72
2022/12/05 08:31:35;;;;;;;12.57;7.63;;;5.30;1.00;;;;;;5082912;28;20432;-74
2022/12/05 08:34:01;;;;;;;8.60;6.73;;;5.30;1.00;;;;;;5094808;28;20415;-75
2022/12/05 08:36:29;;;;;;;11.20;7.20;;;5.30;1.00;;;;;;5086465;28;20463;-74
2022/12/05 08:39:01;;;;;;;8.87;6.70;;;5.30;1.00;;;;;;5095936;28;20497;-73
2022/12/05 08:41:28;;;;;;;10.50;6.70;;;5.30;1.00;;;;;;5095599;28;20428;-75
2022/12/05 08:44:01;;;;;;;7.67;5.83;;;5.30;1.00;;;;;;5095879;28;20402;-73
2022/12/05 08:46:28;;;;;;;16.43;9.83;;;5.30;1.00;;;;;;5086550;28;20447;-72
2022/12/05 08:48:54;;;;;;;13.20;7.47;;;5.40;1.00;;;;;;5076471;28;20797;-72
2022/12/05 08:51:20;;;;;;;10.80;5.83;;;5.30;1.00;;;;;;5079758;28;20918;-74
2022/12/05 08:53:46;;;;;;;12.13;7.40;;;5.40;1.00;;;;;;5074189;28;20430;-73
2022/12/05 08:56:12;;;;;;;10.47;6.83;;;5.30;1.00;;;;;;5076545;28;20203;-72
2022/12/05 08:58:39;;;;;;;17.63;7.57;;;5.40;1.00;;;;;;5076035;28;20405;-73
2022/12/05 09:01:04;;;;;;;14.60;8.00;;;5.40;1.00;;;;;;5075761;28;20415;-73
2022/12/05 09:03:30;;;;;;;10.37;6.60;;;5.40;1.00;;;;;;5074773;28;20501;-73
2022/12/05 09:06:12;;;;;;;10.60;8.20;;;5.40;1.00;;;;;;5075564;28;20186;-74
2022/12/05 09:08:39;;;;;;;16.13;8.13;;;5.40;1.00;;;;;;5074796;28;20176;-74
2022/12/05 09:11:14;;;;;;;9.93;7.63;;;5.40;1.00;;;;;;5075109;28;20418;-74
2022/12/05 09:13:40;;;;;;;10.93;6.70;;;5.40;1.00;;;;;;5074424;28;20478;-71
2022/12/05 09:16:11;;;;;;;11.20;9.33;;;5.40;1.00;;;;;;5075685;28;20456;-73
2022/12/05 09:18:37;;;;;;;16.50;9.07;;;5.40;1.00;;;;;;5075455;28;20401;-72
2022/12/05 09:21:10;;;;;;;23.33;9.83;;;5.50;1.00;;;;;;5075865;28;20504;-73
2022/12/05 09:23:36;;;;;;;16.67;9.17;;;5.50;1.00;;;;;;5074155;28;20932;-75
2022/12/05 09:26:04;;;;;;;40.37;17.83;;;5.50;1.00;;;;;;5074736;28;20448;-72
2022/12/05 09:28:30;;;;;;;53.70;21.13;;;5.60;1.00;;;;;;5075773;28;20405;-72
2022/12/05 09:31:02;;;;;;;48.50;22.00;;;5.40;1.00;;;;;;5075869;28;20409;-73
2022/12/05 09:33:29;;;;;;;65.33;23.33;;;5.50;1.00;;;;;;5074896;28;20415;-74
2022/12/05 09:35:55;;;;;;;65.97;24.57;;;5.60;1.00;;;;;;5074865;28;20504;-75
2022/12/05 09:38:21;;;;;;;53.97;24.70;;;5.60;1.00;;;;;;5074294;28;20468;-73
2022/12/05 09:41:01;;;;;;;52.40;23.60;;;5.60;1.00;;;;;;5074569;28;20497;-75
2022/12/05 09:43:50;;;;;;;60.03;23.70;;;5.50;1.00;;;;;;5072882;28;20415;-73
2022/12/05 09:46:37;;;;;;;61.73;25.40;;;5.50;1.00;;;;;;5075515;28;20488;-72
2022/12/05 09:49:04;;;;;;;56.30;23.53;;;5.50;1.00;;;;;;5074380;28;20443;-74
2022/12/05 09:51:31;;;;;;;57.50;24.97;;;5.60;1.00;;;;;;5075398;28;20396;-75
2022/12/05 09:53:56;;;;;;;57.30;26.60;;;5.50;1.00;;;;;;5073848;28;20461;-72
2022/12/05 09:56:32;;;;;;;54.77;24.20;;;5.50;1.00;;;;;;5075016;28;20955;-74
2022/12/05 09:59:01;;;;;;;70.43;26.13;;;5.40;1.00;;;;;;5075383;28;20987;-74
2022/12/05 10:01:41;;;;;;;69.07;25.10;;;5.40;1.00;;;;;;5075357;28;20444;-73
2022/12/05 10:04:26;;;;;;;62.83;26.80;;;5.40;1.00;;;;;;5073270;28;20896;-72
2022/12/05 10:07:09;;;;;;;77.40;25.70;;;5.50;1.00;;;;;;5075104;28;20443;-72
2022/12/05 10:09:52;;;;;;;60.83;26.00;;;5.50;1.00;;;;;;5074269;28;20448;-74
2022/12/05 10:13:14;;;;;;;56.80;23.57;;;5.50;1.00;;;;;;5074583;28;20432;-73
2022/12/05 10:15:56;;;;;;;72.10;24.00;;;5.50;1.00;;;;;;4992658;28;20422;-75
2022/12/05 10:18:43;;;;;;;45.00;23.63;;;5.50;1.00;;;;;;4977231;28;20439;-74
2022/12/05 10:21:14;;;;;;;61.90;25.00;;;5.50;1.00;;;;;;5051958;28;20438;-74
2022/12/05 10:23:54;;;;;;;64.50;25.70;;;5.50;1.00;;;;;;5074201;28;20433;-74
2022/12/05 10:26:22;;;;;;;48.53;21.03;;;5.60;1.00;;;;;;5074670;28;20758;-74
2022/12/05 10:29:16;;;;;;;52.20;23.03;;;5.50;1.00;;;;;;5073465;28;20405;-72
2022/12/05 10:31:44;;;;;;;53.50;24.00;;;5.60;1.00;;;;;;5072578;28;20407;-73
2022/12/05 10:34:31;;;;;;;63.70;22.13;;;5.50;1.00;;;;;;5072555;28;20428;-74
2022/12/05 10:37:30;;;;;;;54.23;23.83;;;5.60;1.00;;;;;;5073221;28;20458;-73
2022/12/05 10:39:57;;;;;;;49.30;21.83;;;5.60;1.00;;;;;;5056871;28;20434;-75
2022/12/05 10:42:36;;;;;;;55.83;21.37;;;5.60;1.00;;;;;;5073034;28;20464;-74
2022/12/05 10:45:05;;;;;;;43.10;20.73;;;5.70;1.00;;;;;;5073753;28;20453;-73
2022/12/05 10:47:32;;;;;;;55.50;23.70;;;5.70;1.00;;;;;;5074256;28;20420;-74
2022/12/05 10:50:02;;;;;;;47.97;23.53;;;5.80;1.00;;;;;;5074084;28;20455;-74
2022/12/05 10:52:29;;;;;;;50.47;24.17;;;5.70;1.00;;;;;;5073467;28;20890;-74
2022/12/05 10:55:01;;;;;;;37.20;21.97;;;5.70;1.00;;;;;;5072081;28;20974;-73
2022/12/05 10:57:31;;;;;;;41.13;22.20;;;5.70;1.00;;;;;;5074488;28;20456;-73
2022/12/05 11:00:08;;;;;;;44.60;22.20;;;5.70;1.00;;;;;;5072732;28;20773;-74
2022/12/05 11:02:36;;;;;;;39.10;19.00;;;5.70;1.00;;;;;;5073851;28;20437;-74
2022/12/05 11:05:03;;;;;;;29.80;15.00;;;5.70;1.00;;;;;;5073259;28;20481;-74
2022/12/05 11:07:31;;;;;;;26.17;12.20;;;5.60;1.00;;;;;;5073792;28;20436;-73
2022/12/05 11:10:00;;;;;;;30.97;12.10;;;5.60;1.00;;;;;;5073173;28;20490;-74
2022/12/05 11:12:37;;;;;;;16.43;10.10;;;5.60;1.00;;;;;;5073719;28;20404;-74
2022/12/05 11:15:24;;;;;;;21.33;9.97;;;5.60;1.00;;;;;;5071779;28;20412;-74
2022/12/05 11:17:55;;;;;;;16.97;9.83;;;5.60;1.00;;;;;;5073522;28;20551;-74
2022/12/05 11:20:21;;;;;;;18.10;9.90;;;5.60;1.00;;;;;;5073628;28;20418;-75
2022/12/05 11:22:52;;;;;;;14.33;9.37;;;5.60;1.00;;;;;;5073556;28;20407;-74
2022/12/05 11:25:27;;;;;;;18.70;8.73;;;5.60;1.00;;;;;;5072864;28;20176;-73
2022/12/05 11:27:58;;;;;;;19.73;10.77;;;5.60;1.00;;;;;;5071499;28;20470;-74
2022/12/05 11:30:27;;;;;;;17.40;10.13;;;5.60;1.00;;;;;;5072168;28;20421;-74
2022/12/05 11:33:21;;;;;;;17.70;10.40;;;5.50;1.00;;;;;;5072286;28;20920;-74
2022/12/05 11:35:49;;;;;;;14.77;8.63;;;5.50;1.00;;;;;;5069728;28;20427;-73
2022/12/05 11:38:18;;;;;;;17.37;9.20;;;5.50;1.00;;;;;;5073401;28;20420;-75
2022/12/05 11:41:05;;;;;;;32.17;12.30;;;5.50;1.00;;;;;;5073213;28;20405;-72
2022/12/05 11:44:03;;;;;;;22.63;10.10;;;5.50;1.00;;;;;;5071521;28;20476;-73
2022/12/05 11:46:35;;;;;;;19.60;9.60;;;5.40;1.00;;;;;;5073172;28;20431;-73
2022/12/05 11:49:23;;;;;;;16.67;8.53;;;5.40;1.00;;;;;;5072155;28;20455;-74
2022/12/05 11:52:33;;;;;;;25.20;9.67;;;5.40;1.00;;;;;;5072170;28;20477;-73
2022/12/05 11:55:34;;;;;;;29.70;11.20;;;5.40;1.00;;;;;;5071444;28;20411;-73
2022/12/05 11:58:25;;;;;;;16.73;9.47;;;5.40;1.00;;;;;;5072314;28;20475;-74
2022/12/05 12:00:57;;;;;;;20.70;11.10;;;5.40;1.00;;;;;;5071464;28;20428;-73
2022/12/05 12:03:41;;;;;;;22.83;11.00;;;5.40;1.00;;;;;;5072972;28;20464;-74
2022/12/05 12:06:25;;;;;;;20.77;10.33;;;5.40;1.00;;;;;;5071116;28;20427;-74
2022/12/05 12:09:38;;;;;;;25.43;11.80;;;5.40;1.00;;;;;;5071772;28;20514;-75
2022/12/05 12:12:14;;;;;;;29.73;13.90;;;5.40;1.00;;;;;;5071930;28;20408;-73
2022/12/05 12:14:52;;;;;;;35.43;11.70;;;5.40;1.00;;;;;;5072253;28;20411;-73
2022/12/05 12:17:40;;;;;;;20.97;11.00;;;5.40;1.00;;;;;;5071545;28;20470;-74
2022/12/05 12:20:26;;;;;;;17.27;10.33;;;5.40;1.00;;;;;;5072312;28;20738;-72
2022/12/05 12:23:16;;;;;;;22.83;9.13;;;5.40;1.00;;;;;;5072897;28;20410;-73
2022/12/05 12:25:54;;;;;;;27.07;11.37;;;5.40;1.00;;;;;;5070906;28;20929;-74
2022/12/05 12:28:23;;;;;;;28.83;10.67;;;5.40;1.00;;;;;;5071606;28;20773;-72
2022/12/05 12:30:55;;;;;;;22.63;9.90;;;5.40;1.00;;;;;;5072742;28;20960;-73
2022/12/05 12:33:32;;;;;;;21.33;10.90;;;5.40;1.00;;;;;;5071391;28;20413;-73
2022/12/05 12:36:21;;;;;;;16.90;9.77;;;5.40;1.00;;;;;;5072125;28;20525;-74
2022/12/05 12:39:24;;;;;;;23.90;10.07;;;5.30;1.00;;;;;;5072637;28;20421;-72
2022/12/05 12:42:08;;;;;;;20.47;8.80;;;5.30;1.00;;;;;;5072395;28;20404;-74
2022/12/05 12:44:52;;;;;;;20.87;10.20;;;5.30;1.00;;;;;;5071935;28;20409;-74
2022/12/05 12:47:30;;;;;;;25.47;10.87;;;5.30;1.00;;;;;;5072420;28;20447;-74
2022/12/05 12:50:12;;;;;;;16.73;9.73;;;5.30;1.00;;;;;;5072598;28;20785;-74
2022/12/05 12:53:17;;;;;;;23.77;9.57;;;5.20;1.00;;;;;;5071097;28;20466;-72
2022/12/05 12:56:04;;;;;;;26.50;11.00;;;5.20;1.00;;;;;;5057423;28;20424;-74
2022/12/05 12:58:47;;;;;;;27.60;12.00;;;5.20;1.00;;;;;;5070620;28;20944;-71
2022/12/05 13:01:36;;;;;;;14.80;10.00;;;5.20;1.00;;;;;;5071091;28;20424;-74
2022/12/05 13:04:13;;;;;;;26.53;10.47;;;5.20;1.00;;;;;;5074528;28;20425;-74
2022/12/05 13:07:08;;;;;;;23.70;10.50;;;5.30;1.00;;;;;;5092616;28;20441;-75
2022/12/05 13:09:48;;;;;;;18.63;9.87;;;5.30;1.00;;;;;;5037451;28;20442;-74
2022/12/05 13:12:19;;;;;;;18.23;10.47;;;5.30;1.00;;;;;;5071197;28;20419;-74
2022/12/05 13:14:52;;;;;;;21.13;10.27;;;5.20;1.00;;;;;;5090863;28;20424;-76
2022/12/05 13:17:21;;;;;;;22.33;11.50;;;5.20;1.00;;;;;;5093590;28;20488;-74
2022/12/05 13:19:51;;;;;;;25.83;10.20;;;5.20;1.00;;;;;;5076754;28;20424;-73
2022/12/05 13:22:23;;;;;;;20.87;10.37;;;5.20;1.00;;;;;;5076055;28;20406;-73
2022/12/05 13:24:50;;;;;;;23.10;10.63;;;5.20;1.00;;;;;;5092584;28;20426;-73
2022/12/05 13:27:19;;;;;;;21.83;11.10;;;5.20;1.00;;;;;;5088673;28;20445;-74
2022/12/05 13:29:48;;;;;;;19.00;10.17;;;5.20;1.00;;;;;;5075754;28;20918;-72
2022/12/05 13:32:25;;;;;;;19.97;9.80;;;5.20;1.00;;;;;;5081581;28;20492;-73